sensor_id;sensor_type;location;lat;lon;timestamp;P1;P2;P0
26185;PMS7003;20067;48.764;9.176;2023-04-09T00:01:21;20.75;20.25;12.00
26185;PMS7003;20067;48.764;9.176;2023-04-09T00:03:47;24.25;22.00;12.00
26185;PMS7003;20067;48.764;9.176;2023-04-09T00:06:12;26.00;22.00;12.00
26185;PMS7003;20067;48.764;9.176;2023-04-09T00:08:38;25.75;22.75;12.50
26185;PMS7003;20067;48.764;9.176;2023-04-09T00:11:03;25.25;24.00;12.00
26185;PMS7003;20067;48.764;9.176;2023-04-09T00:13:29;24.00;19.50;10.50
26185;PMS7003;20067;48.764;9.176;2023-04-09T00:15:55;21.25;18.00;10.00
26185;PMS7003;20067;48.764;9.176;2023-04-09T00:18:20;20.50;19.75;10.00
26185;PMS7003;20067;48.764;9.176;2023-04-09T00:20:46;27.00;23.00;13.50
26185;PMS7003;20067;48.764;9.176;2023-04-09T00:23:12;23.50;20.50;12.75
26185;PMS7003;20067;48.764;9.176;2023-04-09T00:25:37;25.00;20.75;12.00
26185;PMS7003;20067;48.764;9.176;2023-04-09T00:28:03;23.00;21.00;11.50
26185;PMS7003;20067;48.764;9.176;2023-04-09T00:30:29;22.25;20.25;12.00
26185;PMS7003;20067;48.764;9.176;2023-04-09T00:32:55;22.75;21.00;13.00
26185;PMS7003;20067;48.764;9.176;2023-04-09T00:35:21;25.50;23.00;10.00
26185;PMS7003;20067;48.764;9.176;2023-04-09T00:37:47;22.75;21.00;12.50
26185;PMS7003;20067;48.764;9.176;2023-04-09T00:40:12;22.25;18.50;11.50
26185;PMS7003;20067;48.764;9.176;2023-04-09T00:42:38;21.75;21.00;11.50
26185;PMS7003;20067;48.764;9.176;2023-04-09T00:45:04;24.50;20.50;11.50
26185;PMS7003;20067;48.764;9.176;2023-04-09T00:47:31;21.75;21.00;12.00
26185;PMS7003;20067;48.764;9.176;2023-04-09T00:49:57;24.00;22.50;13.00
26185;PMS7003;20067;48.764;9.176;2023-04-09T00:52:25;20.00;18.50;11.00
26185;PMS7003;20067;48.764;9.176;2023-04-09T00:54:51;21.25;21.25;11.00
26185;PMS7003;20067;48.764;9.176;2023-04-09T00:57:17;24.50;21.75;14.50
26185;PMS7003;20067;48.764;9.176;2023-04-09T00:59:43;29.50;25.25;15.25
26185;PMS7003;20067;48.764;9.176;2023-04-09T01:02:09;23.75;21.75;14.50
26185;PMS7003;20067;48.764;9.176;2023-04-09T01:04:35;20.50;19.50;11.50
26185;PMS7003;20067;48.764;9.176;2023-04-09T01:07:07;23.50;20.25;11.50
26185;PMS7003;20067;48.764;9.176;2023-04-09T01:09:41;27.25;22.25;13.00
26185;PMS7003;20067;48.764;9.176;2023-04-09T01:12:32;21.00;19.25;10.50
26185;PMS7003;20067;48.764;9.176;2023-04-09T01:15:07;25.00;23.50;12.25
26185;PMS7003;20067;48.764;9.176;2023-04-09T01:20:29;23.50;21.50;12.00
26185;PMS7003;20067;48.764;9.176;2023-04-09T01:23:06;24.50;21.50;12.75
26185;PMS7003;20067;48.764;9.176;2023-04-09T01:28:45;26.25;23.25;12.50
26185;PMS7003;20067;48.764;9.176;2023-04-09T01:31:14;24.25;24.00;12.25
26185;PMS7003;20067;48.764;9.176;2023-04-09T01:33:42;28.75;24.50;14.75
26185;PMS7003;20067;48.764;9.176;2023-04-09T01:36:08;25.00;23.25;13.75
26185;PMS7003;20067;48.764;9.176;2023-04-09T01:38:35;24.75;22.00;12.50
26185;PMS7003;20067;48.764;9.176;2023-04-09T01:41:06;24.50;22.75;13.50
26185;PMS7003;20067;48.764;9.176;2023-04-09T01:43:33;27.00;25.00;13.00
26185;PMS7003;20067;48.764;9.176;2023-04-09T01:46:00;25.75;23.50;13.00
26185;PMS7003;20067;48.764;9.176;2023-04-09T01:48:30;19.75;19.00;11.75
26185;PMS7003;20067;48.764;9.176;2023-04-09T01:50:57;23.75;19.75;12.50
26185;PMS7003;20067;48.764;9.176;2023-04-09T01:53:23;24.25;20.00;11.25
26185;PMS7003;20067;48.764;9.176;2023-04-09T01:55:52;24.50;22.00;12.00
26185;PMS7003;20067;48.764;9.176;2023-04-09T01:58:19;29.50;22.75;12.50
26185;PMS7003;20067;48.764;9.176;2023-04-09T02:00:46;24.25;21.75;12.50
26185;PMS7003;20067;48.764;9.176;2023-04-09T02:05:45;23.25;20.50;12.00
26185;PMS7003;20067;48.764;9.176;2023-04-09T02:08:18;21.25;18.75;12.00
26185;PMS7003;20067;48.764;9.176;2023-04-09T02:10:47;23.00;22.00;12.50
26185;PMS7003;20067;48.764;9.176;2023-04-09T02:13:19;23.25;19.25;11.00
26185;PMS7003;20067;48.764;9.176;2023-04-09T02:15:46;26.00;19.75;12.00
26185;PMS7003;20067;48.764;9.176;2023-04-09T02:18:22;26.75;22.00;14.00
26185;PMS7003;20067;48.764;9.176;2023-04-09T02:20:48;22.75;22.75;12.00
26185;PMS7003;20067;48.764;9.176;2023-04-09T02:23:15;22.75;18.50;11.00
26185;PMS7003;20067;48.764;9.176;2023-04-09T02:25:41;16.50;16.00;9.50
26185;PMS7003;20067;48.764;9.176;2023-04-09T02:28:07;23.00;21.00;12.25
26185;PMS7003;20067;48.764;9.176;2023-04-09T02:30:33;26.75;23.00;13.00
26185;PMS7003;20067;48.764;9.176;2023-04-09T02:32:58;16.75;16.75;10.25
26185;PMS7003;20067;48.764;9.176;2023-04-09T02:35:24;23.50;21.50;13.00
26185;PMS7003;20067;48.764;9.176;2023-04-09T02:37:49;20.50;19.25;11.50
26185;PMS7003;20067;48.764;9.176;2023-04-09T02:40:15;27.50;19.75;12.00
26185;PMS7003;20067;48.764;9.176;2023-04-09T02:42:41;21.00;18.25;10.00
26185;PMS7003;20067;48.764;9.176;2023-04-09T02:45:06;23.50;18.00;9.25
26185;PMS7003;20067;48.764;9.176;2023-04-09T02:47:32;18.50;18.50;9.25
26185;PMS7003;20067;48.764;9.176;2023-04-09T02:49:58;24.00;20.75;11.50
26185;PMS7003;20067;48.764;9.176;2023-04-09T02:52:23;19.00;18.25;12.00
26185;PMS7003;20067;48.764;9.176;2023-04-09T02:54:51;19.75;18.00;9.75
26185;PMS7003;20067;48.764;9.176;2023-04-09T02:57:17;21.25;19.75;12.00
26185;PMS7003;20067;48.764;9.176;2023-04-09T02:59:43;22.75;21.00;12.00
26185;PMS7003;20067;48.764;9.176;2023-04-09T03:02:09;24.75;20.25;10.00
26185;PMS7003;20067;48.764;9.176;2023-04-09T03:04:35;21.25;19.50;11.50
26185;PMS7003;20067;48.764;9.176;2023-04-09T03:07:01;18.00;17.50;11.00
26185;PMS7003;20067;48.764;9.176;2023-04-09T03:09:26;22.25;20.75;12.25
26185;PMS7003;20067;48.764;9.176;2023-04-09T03:11:53;20.25;19.25;12.25
26185;PMS7003;20067;48.764;9.176;2023-04-09T03:14:20;22.25;21.00;11.75
26185;PMS7003;20067;48.764;9.176;2023-04-09T03:16:45;21.75;20.25;10.00
26185;PMS7003;20067;48.764;9.176;2023-04-09T03:19:11;23.50;23.25;13.25
26185;PMS7003;20067;48.764;9.176;2023-04-09T03:21:36;25.25;23.00;12.00
26185;PMS7003;20067;48.764;9.176;2023-04-09T03:24:02;22.75;20.00;12.75
26185;PMS7003;20067;48.764;9.176;2023-04-09T03:26:28;25.25;21.00;12.00
26185;PMS7003;20067;48.764;9.176;2023-04-09T03:28:59;19.50;18.00;9.50
26185;PMS7003;20067;48.764;9.176;2023-04-09T03:31:29;22.75;21.25;12.00
26185;PMS7003;20067;48.764;9.176;2023-04-09T03:33:55;28.75;25.25;12.00
26185;PMS7003;20067;48.764;9.176;2023-04-09T03:36:21;20.75;18.25;9.75
26185;PMS7003;20067;48.764;9.176;2023-04-09T03:38:47;20.75;20.75;10.50
26185;PMS7003;20067;48.764;9.176;2023-04-09T03:41:13;24.75;19.75;11.50
26185;PMS7003;20067;48.764;9.176;2023-04-09T03:43:38;21.25;19.00;12.50
26185;PMS7003;20067;48.764;9.176;2023-04-09T03:46:15;23.25;19.00;11.25
26185;PMS7003;20067;48.764;9.176;2023-04-09T03:48:42;26.25;19.75;11.75
26185;PMS7003;20067;48.764;9.176;2023-04-09T03:51:11;22.00;20.00;12.00
26185;PMS7003;20067;48.764;9.176;2023-04-09T03:53:38;22.75;18.25;10.25
26185;PMS7003;20067;48.764;9.176;2023-04-09T03:56:05;18.50;17.00;11.00
26185;PMS7003;20067;48.764;9.176;2023-04-09T03:58:30;20.50;20.50;11.50
26185;PMS7003;20067;48.764;9.176;2023-04-09T04:00:56;23.75;20.00;12.00
26185;PMS7003;20067;48.764;9.176;2023-04-09T04:03:22;22.25;20.50;11.50
26185;PMS7003;20067;48.764;9.176;2023-04-09T04:05:47;22.25;21.75;11.75
26185;PMS7003;20067;48.764;9.176;2023-04-09T04:08:13;20.25;20.00;12.00
26185;PMS7003;20067;48.764;9.176;2023-04-09T04:10:38;28.25;20.00;10.50
26185;PMS7003;20067;48.764;9.176;2023-04-09T04:13:07;24.00;22.50;14.00
26185;PMS7003;20067;48.764;9.176;2023-04-09T04:15:33;23.75;19.75;9.75
26185;PMS7003;20067;48.764;9.176;2023-04-09T04:18:06;26.00;21.75;12.00
26185;PMS7003;20067;48.764;9.176;2023-04-09T04:20:32;20.75;18.00;10.75
26185;PMS7003;20067;48.764;9.176;2023-04-09T04:22:57;23.50;21.25;12.00
26185;PMS7003;20067;48.764;9.176;2023-04-09T04:25:23;26.25;20.50;12.00
26185;PMS7003;20067;48.764;9.176;2023-04-09T04:27:49;25.25;22.25;12.00
26185;PMS7003;20067;48.764;9.176;2023-04-09T04:30:14;21.00;20.00;11.00
26185;PMS7003;20067;48.764;9.176;2023-04-09T04:32:40;26.25;23.00;12.75
26185;PMS7003;20067;48.764;9.176;2023-04-09T04:35:06;26.50;23.00;12.50
26185;PMS7003;20067;48.764;9.176;2023-04-09T04:37:32;24.50;20.75;10.50
26185;PMS7003;20067;48.764;9.176;2023-04-09T04:39:59;24.50;22.25;12.50
26185;PMS7003;20067;48.764;9.176;2023-04-09T04:42:25;20.75;20.75;10.00
26185;PMS7003;20067;48.764;9.176;2023-04-09T04:44:51;20.50;18.25;12.00
26185;PMS7003;20067;48.764;9.176;2023-04-09T04:47:16;21.75;19.75;10.00
26185;PMS7003;20067;48.764;9.176;2023-04-09T04:49:43;21.75;20.50;12.00
26185;PMS7003;20067;48.764;9.176;2023-04-09T04:52:09;23.00;21.50;12.25
26185;PMS7003;20067;48.764;9.176;2023-04-09T04:54:35;24.50;21.00;13.00
26185;PMS7003;20067;48.764;9.176;2023-04-09T04:57:00;25.75;20.00;11.00
26185;PMS7003;20067;48.764;9.176;2023-04-09T04:59:26;24.75;22.00;12.50
26185;PMS7003;20067;48.764;9.176;2023-04-09T05:01:52;24.50;23.75;13.00
26185;PMS7003;20067;48.764;9.176;2023-04-09T05:04:18;28.50;23.00;12.50
26185;PMS7003;20067;48.764;9.176;2023-04-09T05:06:43;26.50;23.00;13.00
26185;PMS7003;20067;48.764;9.176;2023-04-09T05:09:09;22.25;22.25;11.50
26185;PMS7003;20067;48.764;9.176;2023-04-09T05:11:35;23.50;20.00;12.50
26185;PMS7003;20067;48.764;9.176;2023-04-09T05:14:00;18.25;18.25;10.00
26185;PMS7003;20067;48.764;9.176;2023-04-09T05:16:26;23.25;20.50;12.00
26185;PMS7003;20067;48.764;9.176;2023-04-09T05:18:52;20.25;18.75;13.25
26185;PMS7003;20067;48.764;9.176;2023-04-09T05:21:17;30.75;24.00;12.50
26185;PMS7003;20067;48.764;9.176;2023-04-09T05:23:43;23.50;23.00;12.00
26185;PMS7003;20067;48.764;9.176;2023-04-09T05:26:08;25.75;24.50;14.50
26185;PMS7003;20067;48.764;9.176;2023-04-09T05:28:34;20.00;18.25;10.25
26185;PMS7003;20067;48.764;9.176;2023-04-09T05:31:00;24.00;21.25;12.00
26185;PMS7003;20067;48.764;9.176;2023-04-09T05:33:26;28.25;23.75;14.00
26185;PMS7003;20067;48.764;9.176;2023-04-09T05:35:51;23.25;20.75;11.50
26185;PMS7003;20067;48.764;9.176;2023-04-09T05:38:17;22.25;20.75;12.00
26185;PMS7003;20067;48.764;9.176;2023-04-09T05:40:42;24.75;21.75;12.75
26185;PMS7003;20067;48.764;9.176;2023-04-09T05:43:09;26.50;22.25;10.50
26185;PMS7003;20067;48.764;9.176;2023-04-09T05:45:35;24.25;22.75;12.00
26185;PMS7003;20067;48.764;9.176;2023-04-09T05:48:01;26.25;20.75;12.00
26185;PMS7003;20067;48.764;9.176;2023-04-09T05:50:26;23.00;22.25;12.50
26185;PMS7003;20067;48.764;9.176;2023-04-09T05:52:52;26.00;22.50;13.25
26185;PMS7003;20067;48.764;9.176;2023-04-09T05:55:18;24.75;22.25;12.75
26185;PMS7003;20067;48.764;9.176;2023-04-09T05:57:43;24.25;23.00;14.50
26185;PMS7003;20067;48.764;9.176;2023-04-09T06:00:09;27.75;23.50;15.00
26185;PMS7003;20067;48.764;9.176;2023-04-09T06:02:36;22.50;22.50;13.00
26185;PMS7003;20067;48.764;9.176;2023-04-09T06:05:01;25.25;21.00;13.75
26185;PMS7003;20067;48.764;9.176;2023-04-09T06:07:27;34.25;31.25;18.00
26185;PMS7003;20067;48.764;9.176;2023-04-09T06:09:53;32.75;28.75;16.00
26185;PMS7003;20067;48.764;9.176;2023-04-09T06:12:20;31.75;29.00;15.25
26185;PMS7003;20067;48.764;9.176;2023-04-09T06:14:48;30.50;23.75;14.50
26185;PMS7003;20067;48.764;9.176;2023-04-09T06:17:14;30.75;27.00;16.75
26185;PMS7003;20067;48.764;9.176;2023-04-09T06:19:40;27.50;26.25;15.00
26185;PMS7003;20067;48.764;9.176;2023-04-09T06:22:08;34.50;30.75;18.00
26185;PMS7003;20067;48.764;9.176;2023-04-09T06:24:34;33.50;29.00;15.25
26185;PMS7003;20067;48.764;9.176;2023-04-09T06:27:00;33.50;30.00;18.50
26185;PMS7003;20067;48.764;9.176;2023-04-09T06:29:26;34.50;25.25;15.00
26185;PMS7003;20067;48.764;9.176;2023-04-09T06:31:52;36.00;30.25;16.25
26185;PMS7003;20067;48.764;9.176;2023-04-09T06:34:18;34.50;27.00;16.25
26185;PMS7003;20067;48.764;9.176;2023-04-09T06:36:43;26.50;26.50;17.00
26185;PMS7003;20067;48.764;9.176;2023-04-09T06:39:09;32.50;27.25;17.50
26185;PMS7003;20067;48.764;9.176;2023-04-09T06:41:35;30.75;26.50;15.00
26185;PMS7003;20067;48.764;9.176;2023-04-09T06:44:01;33.75;33.25;19.25
26185;PMS7003;20067;48.764;9.176;2023-04-09T06:46:26;35.25;32.00;17.75
26185;PMS7003;20067;48.764;9.176;2023-04-09T06:48:52;33.00;30.75;18.00
26185;PMS7003;20067;48.764;9.176;2023-04-09T06:51:18;27.50;27.50;16.00
26185;PMS7003;20067;48.764;9.176;2023-04-09T06:53:44;33.50;30.00;16.50
26185;PMS7003;20067;48.764;9.176;2023-04-09T06:56:11;31.00;26.50;16.50
26185;PMS7003;20067;48.764;9.176;2023-04-09T06:58:37;30.00;26.00;13.00
26185;PMS7003;20067;48.764;9.176;2023-04-09T07:01:03;25.00;23.75;12.75
26185;PMS7003;20067;48.764;9.176;2023-04-09T07:03:28;22.25;20.25;10.00
26185;PMS7003;20067;48.764;9.176;2023-04-09T07:05:54;26.00;26.00;15.75
26185;PMS7003;20067;48.764;9.176;2023-04-09T07:08:21;25.75;21.50;13.75
26185;PMS7003;20067;48.764;9.176;2023-04-09T07:10:47;25.25;19.75;12.00
26185;PMS7003;20067;48.764;9.176;2023-04-09T07:13:13;25.75;23.50;11.75
26185;PMS7003;20067;48.764;9.176;2023-04-09T07:15:39;24.75;21.25;10.00
26185;PMS7003;20067;48.764;9.176;2023-04-09T07:18:04;25.00;23.25;12.00
26185;PMS7003;20067;48.764;9.176;2023-04-09T07:20:30;31.00;23.00;12.25
26185;PMS7003;20067;48.764;9.176;2023-04-09T07:22:56;21.75;19.50;9.00
26185;PMS7003;20067;48.764;9.176;2023-04-09T07:25:21;22.50;19.50;9.75
26185;PMS7003;20067;48.764;9.176;2023-04-09T07:27:47;20.75;19.75;9.50
26185;PMS7003;20067;48.764;9.176;2023-04-09T07:30:13;19.75;16.25;9.00
26185;PMS7003;20067;48.764;9.176;2023-04-09T07:32:39;18.25;17.00;9.00
26185;PMS7003;20067;48.764;9.176;2023-04-09T07:35:06;21.75;18.00;9.25
26185;PMS7003;20067;48.764;9.176;2023-04-09T07:37:33;17.50;17.50;7.00
26185;PMS7003;20067;48.764;9.176;2023-04-09T07:40:00;21.00;18.00;9.00
26185;PMS7003;20067;48.764;9.176;2023-04-09T07:42:27;18.25;17.25;9.25
26185;PMS7003;20067;48.764;9.176;2023-04-09T07:44:53;19.00;16.00;8.25
26185;PMS7003;20067;48.764;9.176;2023-04-09T07:47:21;21.50;18.00;8.75
26185;PMS7003;20067;48.764;9.176;2023-04-09T07:49:47;18.50;17.00;9.50
26185;PMS7003;20067;48.764;9.176;2023-04-09T07:52:13;17.50;15.00;8.00
26185;PMS7003;20067;48.764;9.176;2023-04-09T07:54:39;23.00;15.00;8.00
26185;PMS7003;20067;48.764;9.176;2023-04-09T07:57:05;12.25;12.25;8.00
26185;PMS7003;20067;48.764;9.176;2023-04-09T07:59:31;16.75;15.00;8.00
26185;PMS7003;20067;48.764;9.176;2023-04-09T08:01:58;19.00;15.00;8.75
26185;PMS7003;20067;48.764;9.176;2023-04-09T08:04:24;15.50;13.00;6.75
26185;PMS7003;20067;48.764;9.176;2023-04-09T08:06:51;18.75;17.50;9.00
26185;PMS7003;20067;48.764;9.176;2023-04-09T08:09:17;19.50;18.50;9.50
26185;PMS7003;20067;48.764;9.176;2023-04-09T08:11:46;26.75;20.75;11.75
26185;PMS7003;20067;48.764;9.176;2023-04-09T08:14:14;20.00;17.50;9.00
26185;PMS7003;20067;48.764;9.176;2023-04-09T08:16:43;23.25;18.75;10.50
26185;PMS7003;20067;48.764;9.176;2023-04-09T08:19:11;21.75;17.25;10.00
26185;PMS7003;20067;48.764;9.176;2023-04-09T08:21:37;18.75;15.50;10.00
26185;PMS7003;20067;48.764;9.176;2023-04-09T08:24:07;17.75;16.00;10.00
26185;PMS7003;20067;48.764;9.176;2023-04-09T08:26:35;24.00;20.75;11.75
26185;PMS7003;20067;48.764;9.176;2023-04-09T08:29:01;19.25;16.00;8.75
26185;PMS7003;20067;48.764;9.176;2023-04-09T08:31:27;15.75;14.50;7.50
26185;PMS7003;20067;48.764;9.176;2023-04-09T08:33:52;13.75;12.25;6.50
26185;PMS7003;20067;48.764;9.176;2023-04-09T08:36:18;16.00;14.25;8.00
26185;PMS7003;20067;48.764;9.176;2023-04-09T08:38:44;17.50;14.25;7.00
26185;PMS7003;20067;48.764;9.176;2023-04-09T08:41:21;13.25;13.25;7.00
26185;PMS7003;20067;48.764;9.176;2023-04-09T08:43:49;15.50;15.50;8.75
26185;PMS7003;20067;48.764;9.176;2023-04-09T08:46:16;15.50;15.50;8.00
26185;PMS7003;20067;48.764;9.176;2023-04-09T08:48:44;20.25;18.00;8.00
26185;PMS7003;20067;48.764;9.176;2023-04-09T08:51:14;17.50;14.00;8.25
26185;PMS7003;20067;48.764;9.176;2023-04-09T08:54:02;13.75;13.25;8.00
26185;PMS7003;20067;48.764;9.176;2023-04-09T08:56:27;23.25;17.50;9.50
26185;PMS7003;20067;48.764;9.176;2023-04-09T08:58:53;20.25;18.50;10.50
26185;PMS7003;20067;48.764;9.176;2023-04-09T09:01:23;17.50;16.25;8.75
26185;PMS7003;20067;48.764;9.176;2023-04-09T09:06:21;18.50;17.75;8.50
26185;PMS7003;20067;48.764;9.176;2023-04-09T09:09:04;18.25;16.25;9.50
26185;PMS7003;20067;48.764;9.176;2023-04-09T09:11:30;15.75;15.25;8.25
26185;PMS7003;20067;48.764;9.176;2023-04-09T09:14:00;20.75;19.00;10.00
26185;PMS7003;20067;48.764;9.176;2023-04-09T09:16:27;19.50;16.25;9.25
26185;PMS7003;20067;48.764;9.176;2023-04-09T09:18:53;19.00;16.50;9.50
26185;PMS7003;20067;48.764;9.176;2023-04-09T09:21:20;18.00;15.00;8.00
26185;PMS7003;20067;48.764;9.176;2023-04-09T09:23:47;16.50;15.50;9.00
26185;PMS7003;20067;48.764;9.176;2023-04-09T09:26:15;19.25;15.25;8.75
26185;PMS7003;20067;48.764;9.176;2023-04-09T09:28:42;19.50;18.75;10.50
26185;PMS7003;20067;48.764;9.176;2023-04-09T09:31:12;20.00;19.25;10.00
26185;PMS7003;20067;48.764;9.176;2023-04-09T09:33:38;19.75;17.25;10.00
26185;PMS7003;20067;48.764;9.176;2023-04-09T09:36:05;22.25;17.00;9.75
26185;PMS7003;20067;48.764;9.176;2023-04-09T09:38:33;18.00;17.25;11.00
26185;PMS7003;20067;48.764;9.176;2023-04-09T09:41:17;20.00;18.00;10.00
26185;PMS7003;20067;48.764;9.176;2023-04-09T09:43:43;15.75;14.25;7.75
26185;PMS7003;20067;48.764;9.176;2023-04-09T09:46:10;13.75;13.75;6.25
26185;PMS7003;20067;48.764;9.176;2023-04-09T09:48:36;18.75;15.00;9.00
26185;PMS7003;20067;48.764;9.176;2023-04-09T09:51:03;17.25;15.25;8.50
26185;PMS7003;20067;48.764;9.176;2023-04-09T09:53:36;19.00;17.00;10.00
26185;PMS7003;20067;48.764;9.176;2023-04-09T09:56:04;14.50;14.00;8.00
26185;PMS7003;20067;48.764;9.176;2023-04-09T09:58:37;17.75;14.25;8.00
26185;PMS7003;20067;48.764;9.176;2023-04-09T10:01:08;14.00;14.00;7.75
26185;PMS7003;20067;48.764;9.176;2023-04-09T10:03:37;14.50;12.00;7.00
26185;PMS7003;20067;48.764;9.176;2023-04-09T10:06:04;15.25;13.25;7.00
26185;PMS7003;20067;48.764;9.176;2023-04-09T10:08:33;16.50;14.75;6.00
26185;PMS7003;20067;48.764;9.176;2023-04-09T10:11:01;13.75;13.75;6.00
26185;PMS7003;20067;48.764;9.176;2023-04-09T10:13:39;15.00;12.00;6.00
26185;PMS7003;20067;48.764;9.176;2023-04-09T10:16:07;12.75;12.00;6.00
26185;PMS7003;20067;48.764;9.176;2023-04-09T10:18:33;19.25;16.50;10.00
26185;PMS7003;20067;48.764;9.176;2023-04-09T10:21:04;20.00;15.25;8.75
26185;PMS7003;20067;48.764;9.176;2023-04-09T10:23:47;15.50;15.00;7.00
26185;PMS7003;20067;48.764;9.176;2023-04-09T10:26:14;13.25;11.00;6.00
26185;PMS7003;20067;48.764;9.176;2023-04-09T10:28:42;14.00;11.75;6.00
26185;PMS7003;20067;48.764;9.176;2023-04-09T10:31:08;15.50;11.50;6.00
26185;PMS7003;20067;48.764;9.176;2023-04-09T10:33:35;12.00;10.00;5.00
26185;PMS7003;20067;48.764;9.176;2023-04-09T10:36:03;11.00;10.50;5.50
26185;PMS7003;20067;48.764;9.176;2023-04-09T10:41:05;11.25;11.25;6.25
26185;PMS7003;20067;48.764;9.176;2023-04-09T10:43:32;15.75;14.75;7.00
26185;PMS7003;20067;48.764;9.176;2023-04-09T10:46:00;14.75;14.50;8.25
26185;PMS7003;20067;48.764;9.176;2023-04-09T10:48:31;14.00;12.75;6.00
26185;PMS7003;20067;48.764;9.176;2023-04-09T10:50:58;16.00;13.25;7.25
26185;PMS7003;20067;48.764;9.176;2023-04-09T10:53:26;16.50;13.75;6.00
26185;PMS7003;20067;48.764;9.176;2023-04-09T10:55:52;11.25;9.75;5.00
26185;PMS7003;20067;48.764;9.176;2023-04-09T10:58:18;11.50;11.50;6.50
26185;PMS7003;20067;48.764;9.176;2023-04-09T11:00:45;16.25;14.50;6.50
26185;PMS7003;20067;48.764;9.176;2023-04-09T11:03:17;13.25;11.50;6.50
26185;PMS7003;20067;48.764;9.176;2023-04-09T11:05:45;14.50;10.75;5.75
26185;PMS7003;20067;48.764;9.176;2023-04-09T11:08:33;11.00;11.00;6.25
26185;PMS7003;20067;48.764;9.176;2023-04-09T11:11:00;13.50;11.75;6.00
26185;PMS7003;20067;48.764;9.176;2023-04-09T11:13:26;15.75;13.50;7.00
26185;PMS7003;20067;48.764;9.176;2023-04-09T11:15:53;17.50;14.25;6.50
26185;PMS7003;20067;48.764;9.176;2023-04-09T11:18:24;16.25;13.50;7.25
26185;PMS7003;20067;48.764;9.176;2023-04-09T11:20:54;13.00;12.50;7.75
26185;PMS7003;20067;48.764;9.176;2023-04-09T11:23:20;13.00;12.00;6.00
26185;PMS7003;20067;48.764;9.176;2023-04-09T11:25:47;18.25;14.25;7.50
26185;PMS7003;20067;48.764;9.176;2023-04-09T11:28:14;13.50;12.50;6.50
26185;PMS7003;20067;48.764;9.176;2023-04-09T11:30:40;17.00;16.00;7.50
26185;PMS7003;20067;48.764;9.176;2023-04-09T11:33:06;17.25;16.25;8.00
26185;PMS7003;20067;48.764;9.176;2023-04-09T11:35:32;15.75;12.50;6.50
26185;PMS7003;20067;48.764;9.176;2023-04-09T11:38:00;20.75;18.75;9.25
26185;PMS7003;20067;48.764;9.176;2023-04-09T11:40:30;17.00;16.00;8.00
26185;PMS7003;20067;48.764;9.176;2023-04-09T11:42:55;13.50;11.25;5.00
26185;PMS7003;20067;48.764;9.176;2023-04-09T11:45:22;12.75;11.75;6.00
26185;PMS7003;20067;48.764;9.176;2023-04-09T11:47:50;13.25;12.00;7.50
26185;PMS7003;20067;48.764;9.176;2023-04-09T11:50:16;12.50;12.00;7.00
26185;PMS7003;20067;48.764;9.176;2023-04-09T11:52:46;16.75;15.25;8.00
26185;PMS7003;20067;48.764;9.176;2023-04-09T11:55:21;13.75;13.25;6.00
26185;PMS7003;20067;48.764;9.176;2023-04-09T11:57:58;16.00;12.00;6.00
26185;PMS7003;20067;48.764;9.176;2023-04-09T12:00:25;12.00;10.25;5.00
26185;PMS7003;20067;48.764;9.176;2023-04-09T12:02:58;17.50;15.25;7.00
26185;PMS7003;20067;48.764;9.176;2023-04-09T12:05:28;13.50;12.75;6.00
26185;PMS7003;20067;48.764;9.176;2023-04-09T12:07:56;12.75;12.00;5.25
26185;PMS7003;20067;48.764;9.176;2023-04-09T12:10:31;18.00;15.25;8.00
26185;PMS7003;20067;48.764;9.176;2023-04-09T12:13:04;14.00;12.25;6.00
26185;PMS7003;20067;48.764;9.176;2023-04-09T12:15:32;15.00;11.00;6.25
26185;PMS7003;20067;48.764;9.176;2023-04-09T12:17:59;15.50;13.00;6.00
26185;PMS7003;20067;48.764;9.176;2023-04-09T12:20:58;12.00;9.50;5.00
26185;PMS7003;20067;48.764;9.176;2023-04-09T12:23:17;19.00;16.00;7.00
26185;PMS7003;20067;48.764;9.176;2023-04-09T12:25:43;13.25;12.75;6.75
26185;PMS7003;20067;48.764;9.176;2023-04-09T12:28:13;16.00;13.50;7.00
26185;PMS7003;20067;48.764;9.176;2023-04-09T12:30:41;14.00;13.25;6.00
26185;PMS7003;20067;48.764;9.176;2023-04-09T12:33:07;13.00;13.00;6.50
26185;PMS7003;20067;48.764;9.176;2023-04-09T12:35:32;18.25;14.50;7.50
26185;PMS7003;20067;48.764;9.176;2023-04-09T12:37:58;14.00;12.25;6.00
26185;PMS7003;20067;48.764;9.176;2023-04-09T12:40:24;11.00;10.75;6.00
26185;PMS7003;20067;48.764;9.176;2023-04-09T12:42:50;13.50;13.25;7.00
26185;PMS7003;20067;48.764;9.176;2023-04-09T12:45:17;18.50;13.00;6.50
26185;PMS7003;20067;48.764;9.176;2023-04-09T12:47:44;14.75;11.25;7.00
26185;PMS7003;20067;48.764;9.176;2023-04-09T12:50:10;15.75;11.00;6.25
26185;PMS7003;20067;48.764;9.176;2023-04-09T12:52:37;14.75;13.50;6.75
26185;PMS7003;20067;48.764;9.176;2023-04-09T12:55:03;14.00;11.75;6.50
26185;PMS7003;20067;48.764;9.176;2023-04-09T12:57:30;14.25;12.25;6.25
26185;PMS7003;20067;48.764;9.176;2023-04-09T12:59:56;12.75;12.75;7.00
26185;PMS7003;20067;48.764;9.176;2023-04-09T13:02:22;14.75;13.75;7.00
26185;PMS7003;20067;48.764;9.176;2023-04-09T13:04:48;15.75;14.75;8.25
26185;PMS7003;20067;48.764;9.176;2023-04-09T13:07:14;12.25;10.75;5.25
26185;PMS7003;20067;48.764;9.176;2023-04-09T13:09:42;13.25;11.75;6.25
26185;PMS7003;20067;48.764;9.176;2023-04-09T13:12:08;13.00;11.00;6.00
26185;PMS7003;20067;48.764;9.176;2023-04-09T13:14:35;16.25;12.75;6.75
26185;PMS7003;20067;48.764;9.176;2023-04-09T13:17:03;15.50;14.00;6.75
26185;PMS7003;20067;48.764;9.176;2023-04-09T13:19:28;13.00;11.50;6.50
26185;PMS7003;20067;48.764;9.176;2023-04-09T13:21:54;11.00;11.00;5.75
26185;PMS7003;20067;48.764;9.176;2023-04-09T13:24:20;12.25;11.25;6.00
26185;PMS7003;20067;48.764;9.176;2023-04-09T13:26:45;11.75;11.75;5.00
26185;PMS7003;20067;48.764;9.176;2023-04-09T13:29:11;13.50;11.25;6.00
26185;PMS7003;20067;48.764;9.176;2023-04-09T13:31:36;13.50;12.25;6.00
26185;PMS7003;20067;48.764;9.176;2023-04-09T13:34:02;11.75;10.00;5.00
26185;PMS7003;20067;48.764;9.176;2023-04-09T13:36:28;11.25;11.25;6.00
26185;PMS7003;20067;48.764;9.176;2023-04-09T13:38:54;12.75;11.00;4.50
26185;PMS7003;20067;48.764;9.176;2023-04-09T13:41:20;12.25;10.25;5.00
26185;PMS7003;20067;48.764;9.176;2023-04-09T13:43:51;10.75;10.75;5.00
26185;PMS7003;20067;48.764;9.176;2023-04-09T13:46:17;12.75;11.25;6.00
26185;PMS7003;20067;48.764;9.176;2023-04-09T13:48:43;11.75;10.00;6.00
26185;PMS7003;20067;48.764;9.176;2023-04-09T13:51:08;10.50;10.00;6.00
26185;PMS7003;20067;48.764;9.176;2023-04-09T13:53:34;10.25;10.25;5.50
26185;PMS7003;20067;48.764;9.176;2023-04-09T13:56:00;15.50;12.00;6.00
26185;PMS7003;20067;48.764;9.176;2023-04-09T13:58:25;9.75;9.75;5.00
26185;PMS7003;20067;48.764;9.176;2023-04-09T14:00:51;12.75;12.75;6.00
26185;PMS7003;20067;48.764;9.176;2023-04-09T14:03:16;13.75;11.00;6.00
26185;PMS7003;20067;48.764;9.176;2023-04-09T14:05:46;11.75;10.00;5.25